Time,TemperatureF,DewpointF,PressureIn,WindDirection,WindDirectionDegrees,WindSpeedMPH,WindSpeedGustMPH,Humidity,HourlyPrecipIn,Conditions,Clouds,dailyrainin,SoftwareType,DateUTC
2015-08-30 00:01:00,63.7,57.1,30.08,SW,230,2.0,2.0,79,0.00,,,0.00,Wunderground v.1.15,2015-08-30 04:01:00,
2015-08-30 00:06:00,64.3,57.6,30.08,West,276,2.0,3.0,79,0.00,,,0.00,Wunderground v.1.15,2015-08-30 04:06:00,
2015-08-30 00:12:00,64.8,58.5,30.08,West,259,2.0,4.0,80,0.00,,,0.00,Wunderground v.1.15,2015-08-30 04:12:00,
2015-08-30 00:18:00,65.1,58.8,30.07,West,277,2.0,4.0,80,0.00,,,0.00,Wunderground v.1.15,2015-08-30 04:18:00,
2015-08-30 00:24:00,65.1,58.8,30.07,NNW,334,1.0,1.0,80,0.00,,,0.00,Wunderground v.1.15,2015-08-30 04:24:00,
2015-08-30 00:31:00,65.0,58.7,30.07,NW,312,2.0,2.0,80,0.00,,,0.00,Wunderground v.1.15,2015-08-30 04:31:00,
2015-08-30 00:37:00,64.8,58.5,30.07,NW,313,2.0,2.0,80,0.00,,,0.00,Wunderground v.1.15,2015-08-30 04:37:00,
2015-08-30 00:43:00,64.6,58.3,30.07,NW,313,1.0,1.0,80,0.00,,,0.00,Wunderground v.1.15,2015-08-30 04:43:00,
2015-08-30 00:49:00,64.3,57.6,30.07,NW,307,1.0,2.0,79,0.00,,,0.00,Wunderground v.1.15,2015-08-30 04:49:00,
2015-08-30 00:56:00,64.0,57.4,30.07,WNW,287,1.0,1.0,79,0.00,,,0.00,Wunderground v.1.15,2015-08-30 04:56:00,
2015-08-30 01:01:00,63.9,57.3,30.07,WNW,290,1.0,1.0,79,0.00,,,0.00,Wunderground v.1.15,2015-08-30 05:01:00,
2015-08-30 01:06:00,63.8,57.2,30.07,WNW,298,1.0,1.0,79,0.00,,,0.00,Wunderground v.1.15,2015-08-30 05:06:00,
2015-08-30 01:12:00,63.8,57.2,30.07,NW,315,2.0,2.0,79,0.00,,,0.00,Wunderground v.1.15,2015-08-30 05:12:00,
2015-08-30 01:18:00,63.9,57.3,30.07,WNW,302,1.0,3.0,79,0.00,,,0.00,Wunderground v.1.15,2015-08-30 05:18:00,
2015-08-30 01:24:00,64.0,57.4,30.07,West,270,1.0,2.0,79,0.00,,,0.00,Wunderground v.1.15,2015-08-30 05:24:00,
2015-08-30 01:31:00,64.1,57.5,30.07,NNW,333,1.0,1.0,79,0.00,,,0.00,Wunderground v.1.15,2015-08-30 05:31:00,
2015-08-30 01:37:00,64.1,57.5,30.06,NNW,333,1.0,2.0,79,0.00,,,0.00,Wunderground v.1.15,2015-08-30 05:37:00,
2015-08-30 01:43:00,64.1,57.5,30.06,WNW,300,1.0,3.0,79,0.00,,,0.00,Wunderground v.1.15,2015-08-30 05:43:00,
2015-08-30 01:49:00,64.0,57.4,30.06,WNW,300,1.0,3.0,79,0.00,,,0.00,Wunderground v.1.15,2015-08-30 05:49:00,
2015-08-30 01:56:00,63.9,57.3,30.06,WNW,300,1.0,1.0,79,0.00,,,0.00,Wunderground v.1.15,2015-08-30 05:56:00,
2015-08-30 02:02:00,63.9,57.3,30.06,WNW,300,1.0,1.0,79,0.00,,,0.00,Wunderground v.1.15,2015-08-30 06:02:00,
2015-08-30 02:07:00,63.8,57.2,30.06,West,279,1.0,1.0,79,0.00,,,0.00,Wunderground v.1.15,2015-08-30 06:07:00,
2015-08-30 02:13:00,63.7,57.1,30.06,West,279,1.0,3.0,79,0.00,,,0.00,Wunderground v.1.15,2015-08-30 06:13:00,
2015-08-30 02:19:00,63.7,57.1,30.06,West,279,1.0,3.0,79,0.00,,,0.00,Wunderground v.1.15,2015-08-30 06:19:00,
2015-08-30 02:24:00,63.6,57.0,30.06,West,279,1.0,1.0,79,0.00,,,0.00,Wunderground v.1.15,2015-08-30 06:24:00,
2015-08-30 02:31:00,63.6,57.0,30.06,West,279,1.0,1.0,79,0.00,,,0.00,Wunderground v.1.15,2015-08-30 06:31:00,
2015-08-30 02:36:00,63.6,57.0,30.05,WSW,252,1.0,2.0,79,0.00,,,0.00,Wunderground v.1.15,2015-08-30 06:36:00,
2015-08-30 02:42:00,63.8,57.2,30.05,NNW,340,2.0,4.0,79,0.00,,,0.00,Wunderground v.1.15,2015-08-30 06:42:00,
2015-08-30 02:48:00,63.8,57.2,30.05,West,279,2.0,4.0,79,0.00,,,0.00,Wunderground v.1.15,2015-08-30 06:48:00,
2015-08-30 02:53:00,63.9,57.3,30.05,WNW,287,1.0,3.0,79,0.00,,,0.00,Wunderground v.1.15,2015-08-30 06:53:00,
2015-08-30 02:59:00,64.0,57.4,30.05,WNW,284,1.0,3.0,79,0.00,,,0.00,Wunderground v.1.15,2015-08-30 06:59:00,
2015-08-30 03:06:00,64.0,57.4,30.05,West,279,1.0,1.0,79,0.00,,,0.00,Wunderground v.1.15,2015-08-30 07:06:00,
2015-08-30 03:08:00,64.0,57.4,30.05,WNW,283,1.0,3.0,79,0.00,,,0.00,Wunderground v.1.15,2015-08-30 07:08:00,
2015-08-30 03:14:00,64.0,57.4,30.05,West,281,1.0,2.0,79,0.00,,,0.00,Wunderground v.1.15,2015-08-30 07:14:00,
2015-08-30 03:19:00,63.9,57.3,30.05,WNW,286,1.0,2.0,79,0.00,,,0.00,Wunderground v.1.15,2015-08-30 07:19:00,
2015-08-30 03:26:00,63.7,57.1,30.04,WNW,295,1.0,3.0,79,0.00,,,0.00,Wunderground v.1.15,2015-08-30 07:26:00,
2015-08-30 03:32:00,63.6,57.0,30.04,WNW,295,1.0,1.0,79,0.00,,,0.00,Wunderground v.1.15,2015-08-30 07:32:00,
2015-08-30 03:37:00,63.5,56.9,30.05,WNW,295,1.0,1.0,79,0.00,,,0.00,Wunderground v.1.15,2015-08-30 07:37:00,
2015-08-30 03:38:00,63.4,56.8,30.04,WNW,295,1.0,1.0,79,0.00,,,0.00,Wunderground v.1.15,2015-08-30 07:38:00,
2015-08-30 03:44:00,63.3,56.3,30.05,WNW,295,1.0,3.0,78,0.00,,,0.00,Wunderground v.1.15,2015-08-30 07:44:00,
2015-08-30 03:51:00,63.0,56.0,30.04,WNW,295,1.0,1.0,78,0.00,,,0.00,Wunderground v.1.15,2015-08-30 07:51:00,
2015-08-30 03:57:00,62.8,55.8,30.04,WNW,295,0.0,1.0,78,0.00,,,0.00,Wunderground v.1.15,2015-08-30 07:57:00,
2015-08-30 04:03:00,62.7,55.7,30.04,WNW,295,1.0,1.0,78,0.00,,,0.00,Wunderground v.1.15,2015-08-30 08:03:00,
2015-08-30 04:08:00,62.6,55.6,30.04,WNW,295,1.0,2.0,78,0.00,,,0.00,Wunderground v.1.15,2015-08-30 08:08:00,
2015-08-30 04:13:00,62.5,55.5,30.04,WNW,295,1.0,2.0,78,0.00,,,0.00,Wunderground v.1.15,2015-08-30 08:13:00,
2015-08-30 04:19:00,62.4,55.4,30.04,West,277,1.0,2.0,78,0.00,,,0.00,Wunderground v.1.15,2015-08-30 08:19:00,
2015-08-30 04:24:00,62.4,55.4,30.04,WNW,298,1.0,3.0,78,0.00,,,0.00,Wunderground v.1.15,2015-08-30 08:24:00,
2015-08-30 04:31:00,62.3,55.4,30.04,WNW,298,1.0,2.0,78,0.00,,,0.00,Wunderground v.1.15,2015-08-30 08:31:00,
2015-08-30 04:36:00,62.2,55.3,30.04,WNW,298,0.0,2.0,78,0.00,,,0.00,Wunderground v.1.15,2015-08-30 08:36:00,
2015-08-30 04:42:00,62.1,55.2,30.04,WNW,298,0.0,1.0,78,0.00,,,0.00,Wunderground v.1.15,2015-08-30 08:42:00,
2015-08-30 04:48:00,62.0,55.1,30.04,WNW,298,1.0,1.0,78,0.00,,,0.00,Wunderground v.1.15,2015-08-30 08:48:00,
2015-08-30 04:54:00,62.0,55.1,30.04,WNW,298,1.0,1.0,78,0.00,,,0.00,Wunderground v.1.15,2015-08-30 08:54:00,
2015-08-30 05:01:00,61.8,54.9,30.04,WNW,296,1.0,2.0,78,0.00,,,0.00,Wunderground v.1.15,2015-08-30 09:01:00,
2015-08-30 05:06:00,61.8,54.9,30.03,WNW,297,1.0,2.0,78,0.00,,,0.00,Wunderground v.1.15,2015-08-30 09:06:00,
2015-08-30 05:12:00,61.8,54.9,30.03,WNW,300,1.0,2.0,78,0.00,,,0.00,Wunderground v.1.15,2015-08-30 09:12:00,
2015-08-30 05:18:00,61.8,54.9,30.04,WNW,300,1.0,2.0,78,0.00,,,0.00,Wunderground v.1.15,2015-08-30 09:18:00,
2015-08-30 05:24:00,61.8,54.9,30.04,WNW,299,1.0,2.0,78,0.00,,,0.00,Wunderground v.1.15,2015-08-30 09:24:00,
2015-08-30 05:29:00,61.7,54.8,30.04,WNW,300,1.0,2.0,78,0.00,,,0.00,Wunderground v.1.15,2015-08-30 09:29:00,
2015-08-30 05:36:00,61.7,54.8,30.04,WNW,300,1.0,1.0,78,0.00,,,0.00,Wunderground v.1.15,2015-08-30 09:36:00,
2015-08-30 05:42:00,61.7,54.8,30.04,WNW,299,1.0,1.0,78,0.00,,,0.00,Wunderground v.1.15,2015-08-30 09:42:00,
2015-08-30 05:47:00,61.7,54.8,30.04,WNW,300,1.0,2.0,78,0.00,,,0.00,Wunderground v.1.15,2015-08-30 09:47:00,
2015-08-30 05:53:00,61.7,54.8,30.04,WNW,300,1.0,1.0,78,0.00,,,0.00,Wunderground v.1.15,2015-08-30 09:53:00,
2015-08-30 05:58:00,61.8,54.9,30.04,NW,318,1.0,1.0,78,0.00,,,0.00,Wunderground v.1.15,2015-08-30 09:58:00,
2015-08-30 06:03:00,61.8,54.9,30.04,NW,319,1.0,2.0,78,0.00,,,0.00,Wunderground v.1.15,2015-08-30 10:03:00,
2015-08-30 06:08:00,61.9,54.6,30.04,WNW,287,1.0,2.0,77,0.00,,,0.00,Wunderground v.1.15,2015-08-30 10:08:00,
2015-08-30 06:14:00,62.2,54.9,30.04,WNW,303,1.0,1.0,77,0.00,,,0.00,Wunderground v.1.15,2015-08-30 10:14:00,
2015-08-30 06:19:00,62.3,55.0,30.05,NW,304,1.0,2.0,77,0.00,,,0.00,Wunderground v.1.15,2015-08-30 10:19:00,
2015-08-30 06:26:00,62.8,55.5,30.05,NW,304,1.0,2.0,77,0.00,,,0.00,Wunderground v.1.15,2015-08-30 10:26:00,
2015-08-30 06:31:00,63.0,55.7,30.04,NW,321,2.0,2.0,77,0.00,,,0.00,Wunderground v.1.15,2015-08-30 10:31:00,
2015-08-30 06:37:00,63.0,55.7,30.05,NW,321,1.0,2.0,77,0.00,,,0.00,Wunderground v.1.15,2015-08-30 10:37:00,
2015-08-30 06:43:00,63.1,55.8,30.05,NW,322,1.0,1.0,77,0.00,,,0.00,Wunderground v.1.15,2015-08-30 10:43:00,
2015-08-30 06:49:00,63.2,55.9,30.05,NW,317,1.0,2.0,77,0.00,,,0.00,Wunderground v.1.15,2015-08-30 10:49:00,
2015-08-30 06:56:00,63.5,56.2,30.05,North,349,1.0,1.0,77,0.00,,,0.00,Wunderground v.1.15,2015-08-30 10:56:00,
2015-08-30 07:02:00,63.8,56.4,30.05,NW,321,1.0,2.0,77,0.00,,,0.00,Wunderground v.1.15,2015-08-30 11:02:00,
2015-08-30 07:07:00,64.0,56.6,30.05,WNW,303,1.0,2.0,77,0.00,,,0.00,Wunderground v.1.15,2015-08-30 11:07:00,
2015-08-30 07:12:00,64.2,56.8,30.05,WNW,303,1.0,2.0,77,0.00,,,0.00,Wunderground v.1.15,2015-08-30 11:12:00,
2015-08-30 07:18:00,64.5,57.1,30.05,WNW,300,1.0,2.0,77,0.00,,,0.00,Wunderground v.1.15,2015-08-30 11:18:00,
2015-08-30 07:23:00,64.7,57.3,30.05,WNW,293,1.0,2.0,77,0.00,,,0.00,Wunderground v.1.15,2015-08-30 11:23:00,
2015-08-30 07:29:00,64.8,57.4,30.05,WNW,293,1.0,3.0,77,0.00,,,0.00,Wunderground v.1.15,2015-08-30 11:29:00,
2015-08-30 07:34:00,64.9,57.9,30.05,WNW,302,1.0,3.0,78,0.00,,,0.00,Wunderground v.1.15,2015-08-30 11:34:00,
2015-08-30 07:41:00,65.2,58.2,30.06,WNW,302,1.0,1.0,78,0.00,,,0.00,Wunderground v.1.15,2015-08-30 11:41:00,
2015-08-30 07:46:00,65.3,58.3,30.06,NW,306,1.0,3.0,78,0.00,,,0.00,Wunderground v.1.15,2015-08-30 11:46:00,
2015-08-30 07:52:00,65.6,58.6,30.05,WNW,288,2.0,5.0,78,0.00,,,0.00,Wunderground v.1.15,2015-08-30 11:52:00,
2015-08-30 07:57:00,65.8,58.7,30.05,WNW,298,2.0,5.0,78,0.00,,,0.00,Wunderground v.1.15,2015-08-30 11:57:00,
2015-08-30 08:03:00,66.2,59.1,30.05,NNW,337,2.0,3.0,78,0.00,,,0.00,Wunderground v.1.15,2015-08-30 12:03:00,
2015-08-30 08:09:00,66.5,59.4,30.05,NNW,329,1.0,3.0,78,0.00,,,0.00,Wunderground v.1.15,2015-08-30 12:09:00,
2015-08-30 08:16:00,66.9,59.8,30.05,NNW,342,1.0,2.0,78,0.00,,,0.00,Wunderground v.1.15,2015-08-30 12:16:00,
2015-08-30 08:18:00,67.1,60.4,30.05,NNW,342,1.0,2.0,79,0.00,,,0.00,Wunderground v.1.15,2015-08-30 12:18:00,
2015-08-30 08:24:00,67.5,60.8,30.05,North,11,1.0,2.0,79,0.00,,,0.00,Wunderground v.1.15,2015-08-30 12:24:00,
2015-08-30 08:31:00,67.9,61.1,30.05,WNW,287,2.0,2.0,79,0.00,,,0.00,Wunderground v.1.15,2015-08-30 12:31:00,
2015-08-30 08:37:00,68.3,61.5,30.05,NW,314,2.0,4.0,79,0.00,,,0.00,Wunderground v.1.15,2015-08-30 12:37:00,
2015-08-30 08:43:00,68.7,62.3,30.05,NNW,329,2.0,2.0,80,0.00,,,0.00,Wunderground v.1.15,2015-08-30 12:43:00,
2015-08-30 08:56:00,69.4,63.0,30.05,NNE,15,2.0,3.0,80,0.00,,,0.00,Wunderground v.1.15,2015-08-30 12:56:00,
2015-08-30 09:02:00,69.8,63.3,30.05,WNW,295,2.0,5.0,80,0.00,,,0.00,Wunderground v.1.15,2015-08-30 13:02:00,
2015-08-30 09:07:00,70.3,63.8,30.05,NNW,346,1.0,5.0,80,0.00,,,0.00,Wunderground v.1.15,2015-08-30 13:07:00,
2015-08-30 09:12:00,70.8,64.3,30.06,North,360,1.0,2.0,80,0.00,,,0.00,Wunderground v.1.15,2015-08-30 13:12:00,
2015-08-30 09:18:00,71.5,64.6,30.05,NW,315,2.0,5.0,79,0.00,,,0.00,Wunderground v.1.15,2015-08-30 13:18:00,
2015-08-30 09:23:00,72.0,65.1,30.05,WNW,294,2.0,2.0,79,0.00,,,0.00,Wunderground v.1.15,2015-08-30 13:23:00,
2015-08-30 09:28:00,72.5,65.6,30.05,NNW,328,1.0,3.0,79,0.00,,,0.00,Wunderground v.1.15,2015-08-30 13:28:00,
2015-08-30 09:34:00,73.1,66.2,30.05,WNW,299,1.0,2.0,79,0.00,,,0.00,Wunderground v.1.15,2015-08-30 13:34:00,
2015-08-30 09:41:00,73.9,67.0,30.05,SSE,148,1.0,1.0,79,0.00,,,0.00,Wunderground v.1.15,2015-08-30 13:41:00,
2015-08-30 09:47:00,75.1,67.8,30.05,SSE,155,1.0,1.0,78,0.00,,,0.00,Wunderground v.1.15,2015-08-30 13:47:00,
2015-08-30 09:53:00,76.3,68.2,30.05,SW,236,1.0,2.0,76,0.00,,,0.00,Wunderground v.1.15,2015-08-30 13:53:00,
2015-08-30 09:58:00,76.6,67.7,30.05,North,360,2.0,3.0,74,0.00,,,0.00,Wunderground v.1.15,2015-08-30 13:58:00,
2015-08-30 10:04:00,76.9,68.0,30.05,West,271,2.0,2.0,74,0.00,,,0.00,Wunderground v.1.15,2015-08-30 14:04:00,
2015-08-30 10:09:00,77.1,68.6,30.06,West,263,3.0,6.0,75,0.00,,,0.00,Wunderground v.1.15,2015-08-30 14:09:00,
2015-08-30 10:16:00,77.6,68.3,30.06,NW,311,2.0,3.0,73,0.00,,,0.00,Wunderground v.1.15,2015-08-30 14:16:00,
2015-08-30 10:22:00,78.2,68.4,30.05,NNW,340,2.0,6.0,72,0.00,,,0.00,Wunderground v.1.15,2015-08-30 14:22:00,
2015-08-30 10:28:00,78.9,68.3,30.05,WNW,303,2.0,6.0,70,0.00,,,0.00,Wunderground v.1.15,2015-08-30 14:28:00,
2015-08-30 10:34:00,79.3,68.2,30.04,NW,322,2.0,2.0,69,0.00,,,0.00,Wunderground v.1.15,2015-08-30 14:34:00,
2015-08-30 10:39:00,79.8,68.7,30.05,WNW,299,2.0,4.0,69,0.00,,,0.00,Wunderground v.1.15,2015-08-30 14:39:00,
2015-08-30 10:43:00,80.1,68.2,30.04,West,274,2.0,4.0,67,0.00,,,0.00,Wunderground v.1.15,2015-08-30 14:43:00,
2015-08-30 10:49:00,80.3,67.5,30.04,NNW,342,3.0,6.0,65,0.00,,,0.00,Wunderground v.1.15,2015-08-30 14:49:00,
2015-08-30 10:54:00,80.3,67.9,30.04,SW,217,2.0,6.0,66,0.00,,,0.00,Wunderground v.1.15,2015-08-30 14:54:00,
2015-08-30 11:01:00,81.1,69.1,30.05,NNW,338,2.0,2.0,67,0.00,,,0.00,Wunderground v.1.15,2015-08-30 15:01:00,
2015-08-30 11:06:00,81.5,67.7,30.05,NNE,22,3.0,5.0,63,0.00,,,0.00,Wunderground v.1.15,2015-08-30 15:06:00,
2015-08-30 11:12:00,81.4,69.4,30.05,NW,306,3.0,3.0,67,0.00,,,0.00,Wunderground v.1.15,2015-08-30 15:12:00,
2015-08-30 11:17:00,81.4,68.5,30.05,WNW,300,2.0,5.0,65,0.00,,,0.00,Wunderground v.1.15,2015-08-30 15:17:00,
2015-08-30 11:23:00,82.0,70.0,30.05,WNW,302,2.0,4.0,67,0.00,,,0.00,Wunderground v.1.15,2015-08-30 15:23:00,
2015-08-30 11:29:00,82.1,68.7,30.05,NNW,327,2.0,4.0,64,0.00,,,0.00,Wunderground v.1.15,2015-08-30 15:29:00,
2015-08-30 11:36:00,82.3,68.0,30.05,NW,316,3.0,5.0,62,0.00,,,0.00,Wunderground v.1.15,2015-08-30 15:36:00,
2015-08-30 11:41:00,82.3,68.0,30.05,NW,319,3.0,3.0,62,0.00,,,0.00,Wunderground v.1.15,2015-08-30 15:41:00,
2015-08-30 11:46:00,81.8,67.5,30.04,NNW,344,3.0,4.0,62,0.00,,,0.00,Wunderground v.1.15,2015-08-30 15:46:00,
2015-08-30 11:52:00,82.0,68.2,30.04,WNW,302,2.0,2.0,63,0.00,,,0.00,Wunderground v.1.15,2015-08-30 15:52:00,
2015-08-30 11:58:00,82.9,69.5,30.04,North,355,3.0,5.0,64,0.00,,,0.00,Wunderground v.1.15,2015-08-30 15:58:00,
2015-08-30 12:04:00,82.9,67.1,30.04,WNW,299,2.0,2.0,59,0.00,,,0.00,Wunderground v.1.15,2015-08-30 16:04:00,
2015-08-30 12:09:00,82.6,67.8,30.04,NNW,348,2.0,4.0,61,0.00,,,0.00,Wunderground v.1.15,2015-08-30 16:09:00,
2015-08-30 12:16:00,82.1,67.8,30.04,North,360,3.0,6.0,62,0.00,,,0.00,Wunderground v.1.15,2015-08-30 16:16:00,
2015-08-30 12:22:00,82.6,67.8,30.04,West,267,3.0,8.0,61,0.00,,,0.00,Wunderground v.1.15,2015-08-30 16:22:00,
2015-08-30 12:28:00,83.1,66.3,30.04,NW,310,4.0,8.0,57,0.00,,,0.00,Wunderground v.1.15,2015-08-30 16:28:00,
2015-08-30 12:34:00,82.8,67.5,30.04,NW,306,3.0,4.0,60,0.00,,,0.00,Wunderground v.1.15,2015-08-30 16:34:00,
2015-08-30 12:41:00,82.4,67.6,30.04,NW,321,2.0,2.0,61,0.00,,,0.00,Wunderground v.1.15,2015-08-30 16:41:00,
2015-08-30 12:46:00,81.8,67.0,30.03,NNW,344,2.0,3.0,61,0.00,,,0.00,Wunderground v.1.15,2015-08-30 16:46:00,
2015-08-30 12:52:00,81.5,67.2,30.03,NNW,333,2.0,2.0,62,0.00,,,0.00,Wunderground v.1.15,2015-08-30 16:52:00,
2015-08-30 12:57:00,82.0,68.2,30.03,North,360,2.0,3.0,63,0.00,,,0.00,Wunderground v.1.15,2015-08-30 16:57:00,
2015-08-30 13:03:00,82.9,69.5,30.03,WNW,302,3.0,6.0,64,0.00,,,0.00,Wunderground v.1.15,2015-08-30 17:03:00,
2015-08-30 13:08:00,83.6,68.2,30.03,North,360,4.0,6.0,60,0.00,,,0.00,Wunderground v.1.15,2015-08-30 17:08:00,
2015-08-30 13:14:00,83.7,68.8,30.02,North,9,3.0,5.0,61,0.00,,,0.00,Wunderground v.1.15,2015-08-30 17:14:00,
2015-08-30 13:19:00,83.2,67.9,30.02,WNW,282,3.0,5.0,60,0.00,,,0.00,Wunderground v.1.15,2015-08-30 17:19:00,
2015-08-30 13:26:00,82.7,67.4,30.02,NNE,24,3.0,4.0,60,0.00,,,0.00,Wunderground v.1.15,2015-08-30 17:26:00,
2015-08-30 13:32:00,83.0,69.1,30.02,WSW,257,3.0,4.0,63,0.00,,,0.00,Wunderground v.1.15,2015-08-30 17:32:00,
2015-08-30 13:37:00,83.6,67.8,30.02,NNW,330,3.0,4.0,59,0.00,,,0.00,Wunderground v.1.15,2015-08-30 17:37:00,
2015-08-30 13:43:00,84.0,67.6,30.01,NW,319,3.0,4.0,58,0.00,,,0.00,Wunderground v.1.15,2015-08-30 17:43:00,
2015-08-30 13:49:00,84.6,68.7,30.01,WNW,295,3.0,6.0,59,0.00,,,0.00,Wunderground v.1.15,2015-08-30 17:49:00,
2015-08-30 13:54:00,85.5,69.0,30.01,WNW,298,3.0,4.0,58,0.00,,,0.00,Wunderground v.1.15,2015-08-30 17:54:00,
2015-08-30 14:01:00,85.4,68.9,30.01,SSW,206,2.0,3.0,58,0.00,,,0.00,Wunderground v.1.15,2015-08-30 18:01:00,
2015-08-30 14:06:00,85.3,68.3,30.01,WNW,300,3.0,4.0,57,0.00,,,0.00,Wunderground v.1.15,2015-08-30 18:06:00,
2015-08-30 14:12:00,85.0,67.0,30.01,WNW,301,5.0,5.0,55,0.00,,,0.00,Wunderground v.1.15,2015-08-30 18:12:00,
2015-08-30 14:18:00,84.9,66.9,30.01,NNE,24,3.0,5.0,55,0.00,,,0.00,Wunderground v.1.15,2015-08-30 18:18:00,
2015-08-30 14:24:00,84.9,66.4,30.01,WNW,298,3.0,5.0,54,0.00,,,0.00,Wunderground v.1.15,2015-08-30 18:24:00,
2015-08-30 14:31:00,85.2,66.7,30.01,SW,227,3.0,3.0,54,0.00,,,0.00,Wunderground v.1.15,2015-08-30 18:31:00,
2015-08-30 14:37:00,85.7,66.0,30.01,West,261,3.0,3.0,52,0.00,,,0.00,Wunderground v.1.15,2015-08-30 18:37:00,
2015-08-30 14:42:00,85.7,66.0,30.01,WNW,298,4.0,6.0,52,0.00,,,0.00,Wunderground v.1.15,2015-08-30 18:42:00,
2015-08-30 14:48:00,85.5,65.9,30.00,WSW,241,4.0,8.0,52,0.00,,,0.00,Wunderground v.1.15,2015-08-30 18:48:00,
2015-08-30 14:54:00,85.5,66.4,30.00,NNE,25,4.0,5.0,53,0.00,,,0.00,Wunderground v.1.15,2015-08-30 18:54:00,
2015-08-30 14:59:00,85.0,66.0,30.00,West,273,3.0,5.0,53,0.00,,,0.00,Wunderground v.1.15,2015-08-30 18:59:00,
2015-08-30 15:06:00,85.1,68.2,30.00,West,262,3.0,7.0,57,0.00,,,0.00,Wunderground v.1.15,2015-08-30 19:06:00,
2015-08-30 15:12:00,85.6,68.6,29.99,WSW,257,3.0,3.0,57,0.00,,,0.00,Wunderground v.1.15,2015-08-30 19:12:00,
2015-08-30 15:18:00,86.2,68.1,29.99,West,260,2.0,5.0,55,0.00,,,0.00,Wunderground v.1.15,2015-08-30 19:18:00,
2015-08-30 15:23:00,86.2,67.6,29.99,WNW,302,2.0,3.0,54,0.00,,,0.00,Wunderground v.1.15,2015-08-30 19:23:00,
2015-08-30 15:29:00,86.1,67.5,29.99,NW,315,2.0,5.0,54,0.00,,,0.00,Wunderground v.1.15,2015-08-30 19:29:00,
2015-08-30 15:36:00,85.8,67.8,29.98,NNW,330,2.0,3.0,55,0.00,,,0.00,Wunderground v.1.15,2015-08-30 19:36:00,
2015-08-30 15:42:00,85.3,67.3,29.98,NNE,15,2.0,3.0,55,0.00,,,0.00,Wunderground v.1.15,2015-08-30 19:42:00,
2015-08-30 15:48:00,84.4,65.9,29.98,NW,317,3.0,8.0,54,0.00,,,0.00,Wunderground v.1.15,2015-08-30 19:48:00,
2015-08-30 15:54:00,83.8,65.9,29.98,NW,311,4.0,4.0,55,0.00,,,0.00,Wunderground v.1.15,2015-08-30 19:54:00,
2015-08-30 15:59:00,83.4,66.1,29.98,WSW,255,4.0,4.0,56,0.00,,,0.00,Wunderground v.1.15,2015-08-30 19:59:00,
2015-08-30 16:06:00,83.6,66.8,29.98,South,175,3.0,6.0,57,0.00,,,0.00,Wunderground v.1.15,2015-08-30 20:06:00,
2015-08-30 16:12:00,84.1,66.7,29.98,NNW,327,2.0,4.0,56,0.00,,,0.00,Wunderground v.1.15,2015-08-30 20:12:00,
2015-08-30 16:18:00,84.3,67.4,29.98,West,260,3.0,5.0,57,0.00,,,0.00,Wunderground v.1.15,2015-08-30 20:18:00,
2015-08-30 16:23:00,84.1,65.7,29.98,West,275,3.0,3.0,54,0.00,,,0.00,Wunderground v.1.15,2015-08-30 20:23:00,
2015-08-30 16:29:00,83.8,66.4,29.97,NW,309,3.0,5.0,56,0.00,,,0.00,Wunderground v.1.15,2015-08-30 20:29:00,
2015-08-30 16:36:00,83.4,65.5,29.97,West,261,3.0,5.0,55,0.00,,,0.00,Wunderground v.1.15,2015-08-30 20:36:00,
2015-08-30 16:42:00,83.2,66.4,29.97,NNW,348,3.0,3.0,57,0.00,,,0.00,Wunderground v.1.15,2015-08-30 20:42:00,
2015-08-30 16:48:00,82.9,66.1,29.97,North,360,2.0,4.0,57,0.00,,,0.00,Wunderground v.1.15,2015-08-30 20:48:00,
2015-08-30 16:54:00,82.7,65.4,29.97,WNW,296,2.0,3.0,56,0.00,,,0.00,Wunderground v.1.15,2015-08-30 20:54:00,
2015-08-30 17:01:00,82.4,65.6,29.97,West,277,2.0,4.0,57,0.00,,,0.00,Wunderground v.1.15,2015-08-30 21:01:00,
2015-08-30 17:06:00,82.1,65.9,29.97,NW,312,2.0,4.0,58,0.00,,,0.00,Wunderground v.1.15,2015-08-30 21:06:00,
2015-08-30 17:12:00,81.7,66.0,29.97,NW,321,2.0,5.0,59,0.00,,,0.00,Wunderground v.1.15,2015-08-30 21:12:00,
2015-08-30 17:17:00,81.4,66.2,29.97,NNW,337,1.0,5.0,60,0.00,,,0.00,Wunderground v.1.15,2015-08-30 21:17:00,
2015-08-30 17:23:00,81.3,66.6,29.97,NW,309,1.0,4.0,61,0.00,,,0.00,Wunderground v.1.15,2015-08-30 21:23:00,
2015-08-30 17:29:00,81.2,66.0,29.97,North,360,2.0,4.0,60,0.00,,,0.00,Wunderground v.1.15,2015-08-30 21:29:00,
2015-08-30 17:36:00,81.1,66.8,29.97,NW,311,1.0,3.0,62,0.00,,,0.00,Wunderground v.1.15,2015-08-30 21:36:00,
2015-08-30 17:42:00,81.1,67.3,29.97,NW,310,1.0,2.0,63,0.00,,,0.00,Wunderground v.1.15,2015-08-30 21:42:00,
2015-08-30 17:48:00,81.1,68.2,29.97,NW,310,1.0,2.0,65,0.00,,,0.00,Wunderground v.1.15,2015-08-30 21:48:00,
2015-08-30 17:54:00,81.1,68.7,29.97,NW,310,1.0,2.0,66,0.00,,,0.00,Wunderground v.1.15,2015-08-30 21:54:00,
2015-08-30 18:01:00,81.0,68.1,29.97,NW,311,1.0,1.0,65,0.00,,,0.00,Wunderground v.1.15,2015-08-30 22:01:00,
2015-08-30 18:06:00,81.0,69.0,29.97,NW,310,0.0,1.0,67,0.00,,,0.00,Wunderground v.1.15,2015-08-30 22:06:00,
2015-08-30 18:12:00,81.0,69.0,29.97,NW,311,0.0,0.0,67,0.00,,,0.00,Wunderground v.1.15,2015-08-30 22:12:00,
2015-08-30 18:18:00,80.7,69.2,29.97,NW,311,0.0,0.0,68,0.00,,,0.00,Wunderground v.1.15,2015-08-30 22:18:00,
2015-08-30 18:24:00,80.3,69.2,29.97,NW,311,0.0,0.0,69,0.00,,,0.00,Wunderground v.1.15,2015-08-30 22:24:00,
2015-08-30 18:31:00,80.0,69.3,29.97,NW,310,0.0,0.0,70,0.00,,,0.00,Wunderground v.1.15,2015-08-30 22:31:00,
2015-08-30 18:37:00,79.8,69.6,29.97,NW,310,0.0,0.0,71,0.00,,,0.00,Wunderground v.1.15,2015-08-30 22:37:00,
2015-08-30 18:43:00,79.5,69.7,29.96,NW,311,0.0,0.0,72,0.00,,,0.00,Wunderground v.1.15,2015-08-30 22:43:00,
2015-08-30 18:48:00,79.2,69.4,29.97,NW,310,0.0,0.0,72,0.00,,,0.00,Wunderground v.1.15,2015-08-30 22:48:00,
2015-08-30 18:54:00,78.7,69.3,29.97,NW,311,0.0,0.0,73,0.00,,,0.00,Wunderground v.1.15,2015-08-30 22:54:00,
2015-08-30 18:59:00,78.4,69.0,29.97,NW,310,0.0,0.0,73,0.00,,,0.00,Wunderground v.1.15,2015-08-30 22:59:00,
2015-08-30 19:06:00,77.8,68.8,29.97,NW,311,0.0,0.0,74,0.00,,,0.00,Wunderground v.1.15,2015-08-30 23:06:00,
2015-08-30 19:12:00,77.5,68.6,29.97,NW,311,0.0,0.0,74,0.00,,,0.00,Wunderground v.1.15,2015-08-30 23:12:00,
2015-08-30 19:18:00,77.3,68.8,29.97,NW,311,0.0,0.0,75,0.00,,,0.00,Wunderground v.1.15,2015-08-30 23:18:00,
2015-08-30 19:24:00,77.0,68.5,29.97,NW,311,0.0,0.0,75,0.00,,,0.00,Wunderground v.1.15,2015-08-30 23:24:00,
2015-08-30 19:31:00,76.4,68.3,29.97,NW,311,0.0,0.0,76,0.00,,,0.00,Wunderground v.1.15,2015-08-30 23:31:00,
2015-08-30 19:37:00,76.1,68.0,29.97,NW,310,0.0,0.0,76,0.00,,,0.00,Wunderground v.1.15,2015-08-30 23:37:00,
2015-08-30 19:43:00,75.8,67.7,29.97,NW,310,0.0,0.0,76,0.00,,,0.00,Wunderground v.1.15,2015-08-30 23:43:00,